createdAt,value
2022-10-02T00:02:13.334Z,20.79
2022-10-02T00:04:57.842Z,20.76
2022-10-02T00:07:42.254Z,20.72
2022-10-02T00:10:21.419Z,20.70
2022-10-02T00:12:53.085Z,20.69
2022-10-02T00:15:24.373Z,20.68
2022-10-02T00:17:54.397Z,20.65
2022-10-02T00:20:27.875Z,20.66
2022-10-02T00:22:57.321Z,20.66
2022-10-02T00:25:35.338Z,20.65
2022-10-02T00:28:25.406Z,20.67
2022-10-02T00:31:16.181Z,20.66
2022-10-02T00:34:02.179Z,20.66
2022-10-02T00:36:51.764Z,20.65
2022-10-02T00:39:45.436Z,20.66
2022-10-02T00:42:39.042Z,20.62
2022-10-02T00:45:43.291Z,20.66
2022-10-02T00:48:12.755Z,20.66
2022-10-02T00:50:48.837Z,20.65
2022-10-02T00:53:34.412Z,20.65
2022-10-02T00:56:26.863Z,20.64
2022-10-02T00:59:18.220Z,20.63
2022-10-02T01:02:18.276Z,20.62
2022-10-02T01:04:48.005Z,20.58
2022-10-02T01:07:14.631Z,20.61
2022-10-02T01:09:41.894Z,20.61
2022-10-02T01:12:08.473Z,20.60
2022-10-02T01:14:37.636Z,20.58
2022-10-02T01:17:07.669Z,20.60
2022-10-02T01:19:42.553Z,20.58
2022-10-02T01:22:31.091Z,20.49
2022-10-02T01:25:01.550Z,20.58
2022-10-02T01:27:28.645Z,20.53
2022-10-02T01:30:00.119Z,20.59
2022-10-02T01:32:29.216Z,20.58
2022-10-02T01:34:56.663Z,20.59
2022-10-02T01:37:26.181Z,20.56
2022-10-02T01:39:52.931Z,20.58
2022-10-02T01:42:21.362Z,20.57
2022-10-02T01:44:48.567Z,20.55
2022-10-02T01:47:25.227Z,20.55
2022-10-02T01:49:57.705Z,20.55
2022-10-02T01:52:37.706Z,20.54
2022-10-02T01:55:22.132Z,20.51
2022-10-02T01:58:04.050Z,20.52
2022-10-02T02:00:42.768Z,20.48
2022-10-02T02:03:16.859Z,20.51
2022-10-02T02:05:47.355Z,20.51
2022-10-02T02:08:19.671Z,20.51
2022-10-02T02:11:03.180Z,20.50
2022-10-02T02:13:52.530Z,20.49
2022-10-02T02:16:31.508Z,20.43
2022-10-02T02:19:00.332Z,20.48
2022-10-02T02:21:33.241Z,20.48
2022-10-02T02:24:04.550Z,20.47
2022-10-02T02:26:33.152Z,20.42
2022-10-02T02:29:07.221Z,20.44
2022-10-02T02:31:39.727Z,20.45
2022-10-02T02:34:16.735Z,20.42
2022-10-02T02:36:46.414Z,20.43
2022-10-02T02:39:18.311Z,20.41
2022-10-02T02:41:51.958Z,20.38
2022-10-02T02:44:24.597Z,20.38
2022-10-02T02:47:11.124Z,20.41
2022-10-02T02:49:53.794Z,20.36
2022-10-02T02:52:29.491Z,20.40
2022-10-02T02:55:13.503Z,20.39
2022-10-02T02:57:55.092Z,20.39
2022-10-02T03:00:23.002Z,20.40
2022-10-02T03:02:50.653Z,20.40
2022-10-02T03:05:19.094Z,20.39
2022-10-02T03:08:03.456Z,20.35
2022-10-02T03:11:07.648Z,20.40
2022-10-02T03:13:52.693Z,20.39
2022-10-02T03:16:31.021Z,20.39
2022-10-02T03:19:09.318Z,20.38
2022-10-02T03:21:45.740Z,20.37
2022-10-02T03:24:27.183Z,20.36
2022-10-02T03:27:08.552Z,20.33
2022-10-02T03:29:45.455Z,20.36
2022-10-02T03:32:15.383Z,20.31
2022-10-02T03:34:42.033Z,20.31
2022-10-02T03:37:08.814Z,20.36
2022-10-02T03:39:38.672Z,20.32
2022-10-02T03:42:05.167Z,20.35
2022-10-02T03:44:31.645Z,20.35
2022-10-02T03:46:58.140Z,20.34
2022-10-02T03:49:24.703Z,20.33
2022-10-02T03:51:51.266Z,20.33
2022-10-02T03:54:20.316Z,20.34
2022-10-02T03:56:55.443Z,20.33
2022-10-02T03:59:37.197Z,20.33
2022-10-02T04:02:09.667Z,20.32
2022-10-02T04:04:48.421Z,20.31
2022-10-02T04:07:24.818Z,20.30
2022-10-02T04:10:13.649Z,20.32
2022-10-02T04:12:50.141Z,20.29
2022-10-02T04:15:31.259Z,20.27
2022-10-02T04:18:01.702Z,20.31
2022-10-02T04:20:36.208Z,20.31
2022-10-02T04:23:20.598Z,20.31
2022-10-02T04:25:51.865Z,20.30
2022-10-02T04:28:28.225Z,20.30
2022-10-02T04:30:55.614Z,20.29
2022-10-02T04:33:24.674Z,20.27
2022-10-02T04:35:54.174Z,20.28
2022-10-02T04:38:58.191Z,20.28
2022-10-02T04:41:36.836Z,20.28
2022-10-02T04:44:07.110Z,20.27
2022-10-02T04:46:54.951Z,20.29
2022-10-02T04:49:43.795Z,20.29
2022-10-02T04:52:31.656Z,20.28
2022-10-02T04:55:16.200Z,20.28
2022-10-02T04:58:20.970Z,20.27
2022-10-02T05:00:58.897Z,20.22
2022-10-02T05:03:45.009Z,20.26
2022-10-02T05:06:27.199Z,20.26
2022-10-02T05:09:03.399Z,20.25
2022-10-02T05:11:55.663Z,20.20
2022-10-02T05:15:03.710Z,20.22
2022-10-02T05:17:51.892Z,20.21
2022-10-02T05:20:39.627Z,20.19
2022-10-02T05:23:24.294Z,20.16
2022-10-02T05:26:17.440Z,20.14
2022-10-02T05:29:05.273Z,20.13
2022-10-02T05:32:05.865Z,20.11
2022-10-02T05:35:10.300Z,20.08
2022-10-02T05:38:10.854Z,20.09
2022-10-02T05:41:08.907Z,20.09
2022-10-02T05:43:53.635Z,20.08
2022-10-02T05:46:25.963Z,20.04
2022-10-02T05:49:08.483Z,20.07
2022-10-02T05:51:44.663Z,20.06
2022-10-02T05:54:44.420Z,20.07
2022-10-02T05:57:18.907Z,20.07
2022-10-02T05:59:57.177Z,20.08
2022-10-02T06:03:10.174Z,20.07
2022-10-02T06:06:00.758Z,20.08
2022-10-02T06:08:41.880Z,20.08
2022-10-02T06:11:31.374Z,20.08
2022-10-02T06:14:06.076Z,20.07
2022-10-02T06:16:48.032Z,20.06
2022-10-02T06:19:30.894Z,19.82
2022-10-02T06:22:06.571Z,20.09
2022-10-02T06:24:46.962Z,20.03
2022-10-02T06:27:24.994Z,20.06
2022-10-02T06:29:59.902Z,20.09
2022-10-02T06:32:37.855Z,20.10
2022-10-02T06:35:12.482Z,20.08
2022-10-02T06:38:06.868Z,20.11
2022-10-02T06:41:08.547Z,20.15
2022-10-02T06:44:08.102Z,20.17
2022-10-02T06:46:51.260Z,20.21
2022-10-02T06:49:42.747Z,20.25
2022-10-02T06:52:18.153Z,20.28
2022-10-02T06:55:15.606Z,20.30
2022-10-02T06:57:51.014Z,20.32
2022-10-02T07:00:21.865Z,20.32
2022-10-02T07:02:59.723Z,20.32
2022-10-02T07:05:38.290Z,20.33
2022-10-02T07:08:15.247Z,20.34
2022-10-02T07:10:44.906Z,20.35
2022-10-02T07:13:17.813Z,20.35
2022-10-02T07:16:06.795Z,20.34
2022-10-02T07:18:55.331Z,20.36
2022-10-02T07:21:24.809Z,20.37
2022-10-02T07:24:02.605Z,20.37
2022-10-02T07:27:27.226Z,20.34
2022-10-02T07:29:59.793Z,20.34
2022-10-02T07:32:32.269Z,20.34
2022-10-02T07:35:17.554Z,20.33
2022-10-02T07:38:14.624Z,20.30
2022-10-02T07:40:47.306Z,20.33
2022-10-02T07:43:52.406Z,20.30
2022-10-02T07:46:39.267Z,20.35
2022-10-02T07:49:14.706Z,20.35
2022-10-02T07:51:51.482Z,20.32
2022-10-02T07:54:35.241Z,20.34
2022-10-02T07:57:34.172Z,20.33
2022-10-02T08:00:20.067Z,20.31
2022-10-02T08:03:06.884Z,20.32
2022-10-02T08:05:39.314Z,20.33
2022-10-02T08:08:25.850Z,20.33
2022-10-02T08:10:58.953Z,20.34
2022-10-02T08:13:32.821Z,20.37
2022-10-02T08:15:59.784Z,20.39
2022-10-02T08:18:37.253Z,20.41
2022-10-02T08:21:11.251Z,20.48
2022-10-02T08:23:45.259Z,20.54
2022-10-02T08:26:15.538Z,20.55
2022-10-02T08:28:54.554Z,20.57
2022-10-02T08:31:23.317Z,20.72
2022-10-02T08:33:49.986Z,20.75
2022-10-02T08:36:19.452Z,20.88
2022-10-02T08:38:51.381Z,20.97
2022-10-02T08:41:46.380Z,21.09
2022-10-02T08:44:36.195Z,21.17
2022-10-02T08:47:28.843Z,21.34
2022-10-02T08:50:43.913Z,21.49
2022-10-02T08:54:01.506Z,21.58
2022-10-02T08:56:46.339Z,21.55
2022-10-02T08:59:47.059Z,21.50
2022-10-02T09:02:51.038Z,21.47
2022-10-02T09:05:39.560Z,21.53
2022-10-02T09:08:17.913Z,21.61
2022-10-02T09:11:08.580Z,21.71
2022-10-02T09:13:51.818Z,21.80
2022-10-02T09:16:30.563Z,21.83
2022-10-02T09:19:03.866Z,21.83
2022-10-02T09:21:42.755Z,21.89
2022-10-02T09:24:24.113Z,21.92
2022-10-02T09:26:57.283Z,21.93
2022-10-02T09:29:42.383Z,21.92
2022-10-02T09:32:34.498Z,21.93
2022-10-02T09:35:10.017Z,21.93
2022-10-02T09:38:21.081Z,21.92
2022-10-02T09:41:00.115Z,21.95
2022-10-02T09:43:51.427Z,21.94
2022-10-02T09:46:26.815Z,21.92
2022-10-02T09:49:09.114Z,21.87
2022-10-02T09:51:47.732Z,21.84
2022-10-02T09:54:36.500Z,21.79
2022-10-02T09:57:31.726Z,21.77
2022-10-02T10:00:22.768Z,21.76
2022-10-02T10:03:26.035Z,21.75
2022-10-02T10:06:29.535Z,21.73
2022-10-02T10:09:39.199Z,21.70
2022-10-02T10:12:12.443Z,21.70
2022-10-02T10:15:17.236Z,21.70
2022-10-02T10:17:56.643Z,21.68
2022-10-02T10:20:54.184Z,21.69
2022-10-02T10:23:26.659Z,21.67
2022-10-02T10:26:15.014Z,21.67
2022-10-02T10:29:00.295Z,21.66
2022-10-02T10:31:48.791Z,21.66
2022-10-02T10:34:46.187Z,21.68
2022-10-02T10:38:09.446Z,21.66
2022-10-02T10:40:48.203Z,21.64
2022-10-02T10:43:42.050Z,21.67
2022-10-02T10:46:24.773Z,21.67
2022-10-02T10:49:19.021Z,21.68
2022-10-02T10:51:52.786Z,21.64
2022-10-02T10:54:28.254Z,21.69
2022-10-02T10:57:04.281Z,21.69
2022-10-02T10:59:51.420Z,21.67
2022-10-02T11:02:36.388Z,21.72
2022-10-02T11:05:22.247Z,21.70
2022-10-02T11:08:09.119Z,21.71
2022-10-02T11:10:56.955Z,21.73
2022-10-02T11:13:33.136Z,21.74
2022-10-02T11:16:11.131Z,21.72
2022-10-02T11:19:00.098Z,21.75
2022-10-02T11:21:40.044Z,21.75
2022-10-02T11:24:15.484Z,21.75
2022-10-02T11:27:00.963Z,21.75
2022-10-02T11:29:38.519Z,21.74
2022-10-02T11:32:19.345Z,21.66
2022-10-02T11:35:01.159Z,21.75
2022-10-02T11:37:38.752Z,21.76
2022-10-02T11:40:20.438Z,21.77
2022-10-02T11:42:56.019Z,21.78
2022-10-02T11:46:07.545Z,21.79
2022-10-02T11:48:50.552Z,21.80
2022-10-02T11:51:45.626Z,21.81
2022-10-02T11:54:18.218Z,21.82
2022-10-02T11:57:30.087Z,21.82
2022-10-02T12:00:04.388Z,21.82
2022-10-02T12:02:59.891Z,21.83
2022-10-02T12:05:34.602Z,21.83
2022-10-02T12:08:18.197Z,21.80
2022-10-02T12:11:02.496Z,21.82
2022-10-02T12:13:47.330Z,21.84
2022-10-02T12:16:29.036Z,21.83
2022-10-02T12:19:29.666Z,21.85
2022-10-02T12:22:43.168Z,21.85
2022-10-02T12:25:47.994Z,21.79
2022-10-02T12:28:38.537Z,21.84
2022-10-02T12:31:25.115Z,21.87
2022-10-02T12:34:01.276Z,21.87
2022-10-02T12:36:56.578Z,21.88
2022-10-02T12:39:26.099Z,21.89
2022-10-02T12:42:20.455Z,21.91
2022-10-02T12:45:25.707Z,21.92
2022-10-02T12:47:52.237Z,21.94
2022-10-02T12:50:33.612Z,21.93
2022-10-02T12:53:22.300Z,21.91
2022-10-02T12:56:07.437Z,21.97
2022-10-02T12:58:49.982Z,21.99
2022-10-02T13:01:38.335Z,22.02
2022-10-02T13:04:32.839Z,22.02
2022-10-02T13:07:16.064Z,22.03
2022-10-02T13:10:05.190Z,22.07
2022-10-02T13:12:58.247Z,22.07
2022-10-02T13:15:37.400Z,22.10
2022-10-02T13:18:43.565Z,22.13
2022-10-02T13:21:31.768Z,22.15
2022-10-02T13:24:32.415Z,22.18
2022-10-02T13:27:06.337Z,22.20
2022-10-02T13:29:35.891Z,22.23
2022-10-02T13:32:23.581Z,22.20
2022-10-02T13:35:11.396Z,22.31
2022-10-02T13:37:59.261Z,22.34
2022-10-02T13:40:59.176Z,22.37
2022-10-02T13:43:58.680Z,22.38
2022-10-02T13:46:25.222Z,22.43
2022-10-02T13:49:19.133Z,22.46
2022-10-02T13:51:57.742Z,22.47
2022-10-02T13:54:53.477Z,22.47
2022-10-02T13:57:38.072Z,22.51
2022-10-02T14:00:04.656Z,22.52
2022-10-02T14:02:53.289Z,22.54
2022-10-02T14:05:36.275Z,22.49
2022-10-02T14:08:21.618Z,22.57
2022-10-02T14:11:29.910Z,22.58
2022-10-02T14:14:03.691Z,22.59
2022-10-02T14:16:48.097Z,22.60
2022-10-02T14:19:24.506Z,22.62
2022-10-02T14:22:00.048Z,22.62
2022-10-02T14:24:53.249Z,22.62
2022-10-02T14:27:31.807Z,22.63
2022-10-02T14:30:07.218Z,22.63
2022-10-02T14:32:49.032Z,22.68
2022-10-02T14:35:15.588Z,22.69
2022-10-02T14:38:06.976Z,22.70
2022-10-02T14:40:58.005Z,22.71
2022-10-02T14:43:33.469Z,22.74
2022-10-02T14:46:21.774Z,22.74
2022-10-02T14:49:26.157Z,22.75
2022-10-02T14:52:20.259Z,22.79
2022-10-02T14:55:05.184Z,22.81
2022-10-02T14:58:03.019Z,22.81
2022-10-02T15:00:47.061Z,22.81
2022-10-02T15:03:19.478Z,22.83
2022-10-02T15:06:12.227Z,22.85
2022-10-02T15:08:45.922Z,22.84
2022-10-02T15:11:31.242Z,22.80
2022-10-02T15:14:13.107Z,22.83
2022-10-02T15:17:30.294Z,22.88
2022-10-02T15:20:19.102Z,22.90
2022-10-02T15:22:54.502Z,22.87
2022-10-02T15:25:26.861Z,22.93
2022-10-02T15:28:34.972Z,22.90
2022-10-02T15:31:10.272Z,22.94
2022-10-02T15:33:46.269Z,22.97
2022-10-02T15:36:25.215Z,22.98
2022-10-02T15:39:09.079Z,23.00
2022-10-02T15:41:58.150Z,22.91
2022-10-02T15:44:39.680Z,23.00
2022-10-02T15:47:06.178Z,23.01
2022-10-02T15:49:43.325Z,23.03
2022-10-02T15:52:23.843Z,23.02
2022-10-02T15:54:56.254Z,23.03
2022-10-02T15:57:41.044Z,23.05
2022-10-02T16:00:15.011Z,23.01
2022-10-02T16:02:57.359Z,23.04
2022-10-02T16:05:50.320Z,23.03
2022-10-02T16:08:43.450Z,23.03
2022-10-02T16:11:30.634Z,23.03
2022-10-02T16:14:06.229Z,23.03
2022-10-02T16:16:36.799Z,23.04
2022-10-02T16:19:23.330Z,23.03
2022-10-02T16:22:30.975Z,23.02
2022-10-02T16:25:08.895Z,23.02
2022-10-02T16:27:47.632Z,23.02
2022-10-02T16:30:21.201Z,22.98
2022-10-02T16:32:55.629Z,22.99
2022-10-02T16:35:54.142Z,23.02
2022-10-02T16:38:52.324Z,23.03
2022-10-02T16:41:18.880Z,23.04
2022-10-02T16:43:59.068Z,23.04
2022-10-02T16:46:49.021Z,23.03
2022-10-02T16:49:30.050Z,23.02
2022-10-02T16:52:20.179Z,23.03
2022-10-02T16:55:23.484Z,23.02
2022-10-02T16:58:24.354Z,22.99
2022-10-02T17:01:11.166Z,23.01
2022-10-02T17:03:48.019Z,22.98
2022-10-02T17:06:34.318Z,23.00
2022-10-02T17:09:07.331Z,22.99
2022-10-02T17:11:52.152Z,22.99
2022-10-02T17:14:43.345Z,22.98
2022-10-02T17:17:23.893Z,22.97
2022-10-02T17:19:53.444Z,22.98
2022-10-02T17:22:33.590Z,22.98
2022-10-02T17:25:20.833Z,22.96
2022-10-02T17:28:05.495Z,22.95
2022-10-02T17:30:57.309Z,22.93
2022-10-02T17:33:27.717Z,22.91
2022-10-02T17:35:54.138Z,22.93
2022-10-02T17:38:29.736Z,22.92
2022-10-02T17:41:10.836Z,22.92
2022-10-02T17:43:50.700Z,22.90
2022-10-02T17:46:19.990Z,22.92
2022-10-02T17:49:10.321Z,22.91
2022-10-02T17:52:26.094Z,22.90
2022-10-02T17:55:49.088Z,22.88
2022-10-02T17:58:46.074Z,22.82
2022-10-02T18:01:23.208Z,22.87
2022-10-02T18:04:22.819Z,22.86
2022-10-02T18:06:56.975Z,22.85
2022-10-02T18:09:42.608Z,22.86
2022-10-02T18:12:32.528Z,22.83
2022-10-02T18:15:28.129Z,22.83
2022-10-02T18:18:08.139Z,22.82
2022-10-02T18:20:50.161Z,22.82
2022-10-02T18:23:35.957Z,22.81
2022-10-02T18:26:18.959Z,22.77
2022-10-02T18:29:00.999Z,22.72
2022-10-02T18:31:55.291Z,22.79
2022-10-02T18:34:43.610Z,22.79
2022-10-02T18:37:50.220Z,22.77
2022-10-02T18:40:25.938Z,22.76
2022-10-02T18:42:55.874Z,22.72
2022-10-02T18:45:47.582Z,22.70
2022-10-02T18:48:22.370Z,22.68
2022-10-02T18:51:31.390Z,22.71
2022-10-02T18:54:30.413Z,22.71
2022-10-02T18:57:13.793Z,22.67
2022-10-02T19:00:03.438Z,22.65
2022-10-02T19:03:04.063Z,22.68
2022-10-02T19:05:41.481Z,22.66
2022-10-02T19:08:18.188Z,22.64
2022-10-02T19:10:46.833Z,22.66
2022-10-02T19:13:24.157Z,22.65
2022-10-02T19:15:53.360Z,22.66
2022-10-02T19:18:25.445Z,22.63
2022-10-02T19:21:13.984Z,22.64
2022-10-02T19:24:30.479Z,22.62
2022-10-02T19:27:05.903Z,22.61
2022-10-02T19:29:45.392Z,22.61
2022-10-02T19:32:21.203Z,22.58
2022-10-02T19:34:55.391Z,22.59
2022-10-02T19:37:23.041Z,22.59
2022-10-02T19:40:01.886Z,22.58
2022-10-02T19:42:32.757Z,22.56
2022-10-02T19:45:03.504Z,22.58
2022-10-02T19:47:49.347Z,22.53
2022-10-02T19:50:27.857Z,22.56
2022-10-02T19:53:23.307Z,22.55
2022-10-02T19:56:04.643Z,22.51
2022-10-02T19:58:51.291Z,22.54
2022-10-02T20:01:25.284Z,22.52
2022-10-02T20:03:58.887Z,22.51
2022-10-02T20:06:29.256Z,22.48
2022-10-02T20:09:05.622Z,22.50
2022-10-02T20:11:54.135Z,22.50
2022-10-02T20:14:43.036Z,22.48
2022-10-02T20:17:12.684Z,22.47
2022-10-02T20:19:58.060Z,22.41
2022-10-02T20:22:35.860Z,22.46
2022-10-02T20:25:06.506Z,22.46
2022-10-02T20:27:40.688Z,22.38
2022-10-02T20:30:13.930Z,22.40
2022-10-02T20:33:08.597Z,22.43
2022-10-02T20:35:45.041Z,22.37
2022-10-02T20:38:22.127Z,22.33
2022-10-02T20:40:53.222Z,22.37
2022-10-02T20:43:25.640Z,22.37
2022-10-02T20:46:46.922Z,22.34
2022-10-02T20:49:52.788Z,22.36
2022-10-02T20:52:40.382Z,22.35
2022-10-02T20:55:20.232Z,22.33
2022-10-02T20:58:04.635Z,22.35
2022-10-02T21:00:50.940Z,22.31
2022-10-02T21:03:20.436Z,22.29
2022-10-02T21:06:12.730Z,22.26
2022-10-02T21:09:16.041Z,22.22
2022-10-02T21:11:59.320Z,22.17
2022-10-02T21:15:03.507Z,22.11
2022-10-02T21:17:54.337Z,22.08
2022-10-02T21:20:33.338Z,22.03
2022-10-02T21:23:50.759Z,22.01
2022-10-02T21:26:57.474Z,21.97
2022-10-02T21:29:43.448Z,21.96
2022-10-02T21:32:28.866Z,21.95
2022-10-02T21:35:31.247Z,21.95
2022-10-02T21:38:23.710Z,21.93
2022-10-02T21:41:12.622Z,21.91
2022-10-02T21:44:11.023Z,21.92
2022-10-02T21:47:16.225Z,21.90
2022-10-02T21:50:22.505Z,21.88
2022-10-02T21:53:20.032Z,21.86
2022-10-02T21:56:24.511Z,21.83
2022-10-02T21:59:18.213Z,21.81
2022-10-02T22:02:08.810Z,21.78
2022-10-02T22:05:19.390Z,21.76
2022-10-02T22:08:12.694Z,21.74
2022-10-02T22:11:00.439Z,21.73
2022-10-02T22:13:38.337Z,21.69
2022-10-02T22:16:04.846Z,21.72
2022-10-02T22:19:01.353Z,21.69
2022-10-02T22:21:47.093Z,21.70
2022-10-02T22:24:16.280Z,21.69
2022-10-02T22:26:56.517Z,21.64
2022-10-02T22:29:35.023Z,21.68
2022-10-02T22:32:38.829Z,21.66
2022-10-02T22:35:30.348Z,21.65
2022-10-02T22:38:34.307Z,21.63
2022-10-02T22:41:16.227Z,21.62
2022-10-02T22:43:54.194Z,21.61
2022-10-02T22:46:40.346Z,21.61
2022-10-02T22:49:17.983Z,21.60
2022-10-02T22:52:03.495Z,21.58
2022-10-02T22:54:45.292Z,21.58
2022-10-02T22:57:18.082Z,21.58
2022-10-02T23:00:12.772Z,21.55
2022-10-02T23:03:02.793Z,21.54
2022-10-02T23:05:50.239Z,21.54
2022-10-02T23:08:28.684Z,21.53
2022-10-02T23:11:02.882Z,21.50
2022-10-02T23:13:29.340Z,21.51
2022-10-02T23:16:02.216Z,21.51
2022-10-02T23:18:44.121Z,21.49
2022-10-02T23:21:22.708Z,21.48
2022-10-02T23:23:57.087Z,21.49
2022-10-02T23:26:35.543Z,21.48
2022-10-02T23:29:39.460Z,21.47
2022-10-02T23:32:31.621Z,21.44
2022-10-02T23:35:14.779Z,21.44
2022-10-02T23:38:02.479Z,21.44
2022-10-02T23:40:50.962Z,21.42
2022-10-02T23:43:26.028Z,21.41
2022-10-02T23:46:14.988Z,21.39
2022-10-02T23:48:42.677Z,21.33
2022-10-02T23:51:31.045Z,21.38
2022-10-02T23:54:10.213Z,21.38
2022-10-02T23:57:04.089Z,21.38
2022-10-02T23:59:49.117Z,21.36
